Wetterdaten: aktuell Samstag, 05.09.2026 14:40
Datum Zeit Temp. A. Feuchte A. Luftdruck Regen Wind Richtung Richtung Sonnenschein Solar Taupunkt Windchill Windböen
05.09.2026 14:40 21,6 °C 72 % 1020,0 hPa 0,0 l/m² 6,4 km/h S-SW 202 ° 0 min 285 W/m² 16,3 °C 21,6 °C 16,1 km/h
05.09.2026 14:35 21,4 °C 71 % 1019,9 hPa 0,0 l/m² 9,7 km/h S-SW 202 ° 0 min 225 W/m² 15,9 °C 20,3 °C 19,3 km/h
05.09.2026 14:30 21,6 °C 71 % 1019,9 hPa 0,0 l/m² 9,7 km/h S-SW 202 ° 5 min 728 W/m² 16,1 °C 20,5 °C 19,3 km/h
05.09.2026 14:25 22,1 °C 71 % 1019,8 hPa 0,0 l/m² 9,7 km/h S-SO 157 ° 5 min 872 W/m² 16,6 °C 21,0 °C 20,9 km/h
05.09.2026 14:20 21,2 °C 76 % 1019,7 hPa 0,0 l/m² 8,0 km/h S 180 ° 5 min 986 W/m² 16,8 °C 20,6 °C 17,7 km/h
05.09.2026 14:15 20,4 °C 75 % 1019,9 hPa 0,0 l/m² 11,3 km/h S-SW 202 ° 0 min 341 W/m² 15,8 °C 18,7 °C 22,5 km/h
05.09.2026 14:10 21,0 °C 74 % 1020,0 hPa 0,0 l/m² 9,7 km/h S 180 ° 0 min 350 W/m² 16,2 °C 19,8 °C 17,7 km/h
05.09.2026 14:05 21,3 °C 78 % 1020,0 hPa 0,0 l/m² 11,3 km/h S 180 ° 5 min 944 W/m² 17,3 °C 19,7 °C 30,6 km/h
05.09.2026 14:00 20,5 °C 75 % 1020,0 hPa 0,0 l/m² 9,7 km/h S 180 ° 5 min 895 W/m² 15,9 °C 19,3 °C 19,3 km/h
05.09.2026 13:55 20,1 °C 78 % 1020,2 hPa 0,0 l/m² 8,0 km/h S-SW 202 ° 0 min 288 W/m² 16,1 °C 19,5 °C 16,1 km/h
05.09.2026 13:50 19,9 °C 77 % 1020,2 hPa 0,0 l/m² 8,0 km/h S 180 ° 0 min 260 W/m² 15,7 °C 19,2 °C 19,3 km/h
05.09.2026 13:45 19,8 °C 77 % 1020,2 hPa 0,0 l/m² 14,5 km/h S-SW 202 ° 0 min 267 W/m² 15,6 °C 17,1 °C 22,5 km/h
05.09.2026 13:40 20,6 °C 75 % 1020,3 hPa 0,0 l/m² 14,5 km/h S-SW 202 ° 5 min 998 W/m² 16,0 °C 18,1 °C 25,7 km/h
05.09.2026 13:35 20,6 °C 76 % 1020,4 hPa 0,0 l/m² 11,3 km/h S 180 ° 5 min 817 W/m² 16,2 °C 18,9 °C 17,7 km/h
05.09.2026 13:30 20,5 °C 77 % 1020,3 hPa 0,0 l/m² 11,3 km/h S-SW 202 ° 5 min 991 W/m² 16,3 °C 18,8 °C 17,7 km/h
05.09.2026 13:25 21,1 °C 80 % 1020,4 hPa 0,0 l/m² 6,4 km/h S 180 ° 5 min 744 W/m² 17,5 °C 21,1 °C 17,7 km/h
05.09.2026 13:20 19,7 °C 82 % 1020,4 hPa 0,0 l/m² 3,2 km/h S 180 ° 5 min 1004 W/m² 16,5 °C 19,7 °C 14,5 km/h
05.09.2026 13:15 19,4 °C 82 % 1020,7 hPa 0,0 l/m² 3,2 km/h S-SO 157 ° 0 min 227 W/m² 16,2 °C 19,4 °C 11,3 km/h
05.09.2026 13:10 19,6 °C 82 % 1020,6 hPa 0,0 l/m² 8,0 km/h S 180 ° 0 min 403 W/m² 16,4 °C 18,9 °C 16,1 km/h
05.09.2026 13:05 19,3 °C 82 % 1020,6 hPa 0,0 l/m² 6,4 km/h S-SW 202 ° 5 min 900 W/m² 16,1 °C 19,3 °C 11,3 km/h
05.09.2026 13:00 19,7 °C 81 % 1020,6 hPa 0,0 l/m² 8,0 km/h S-SO 157 ° 5 min 819 W/m² 16,3 °C 19,0 °C 16,1 km/h
05.09.2026 12:55 19,2 °C 84 % 1020,6 hPa 0,0 l/m² 6,4 km/h SW 225 ° 5 min 812 W/m² 16,4 °C 19,2 °C 12,9 km/h
05.09.2026 12:50 18,9 °C 83 % 1020,6 hPa 0,0 l/m² 6,4 km/h SW 225 ° 5 min 844 W/m² 15,9 °C 18,9 °C 14,5 km/h
05.09.2026 12:45 19,1 °C 83 % 1020,7 hPa 0,0 l/m² 4,8 km/h S 180 ° 5 min 875 W/m² 16,1 °C 19,1 °C 17,7 km/h
05.09.2026 12:40 19,2 °C 82 % 1020,7 hPa 0,0 l/m² 4,8 km/h W-SW 247 ° 5 min 921 W/m² 16,0 °C 19,2 °C 9,7 km/h
05.09.2026 12:35 18,3 °C 84 % 1020,6 hPa 0,0 l/m² 6,4 km/h S-SW 202 ° 0 min 452 W/m² 15,5 °C 18,3 °C 11,3 km/h
05.09.2026 12:30 18,3 °C 85 % 1020,6 hPa 0,0 l/m² 6,4 km/h S 180 ° 0 min 350 W/m² 15,7 °C 18,3 °C 12,9 km/h
05.09.2026 12:25 18,3 °C 85 % 1020,6 hPa 0,0 l/m² 6,4 km/h SW 225 ° 5 min 561 W/m² 15,7 °C 18,3 °C 16,1 km/h
05.09.2026 12:20 17,9 °C 86 % 1020,7 hPa 0,0 l/m² 4,8 km/h SW 225 ° 0 min 343 W/m² 15,5 °C 17,9 °C 14,5 km/h
05.09.2026 12:15 17,6 °C 87 % 1020,6 hPa 0,0 l/m² 8,0 km/h S-SW 202 ° 0 min 432 W/m² 15,4 °C 16,8 °C 14,5 km/h
05.09.2026 12:10 17,6 °C 87 % 1020,7 hPa 0,0 l/m² 4,8 km/h SW 225 ° 0 min 369 W/m² 15,4 °C 17,6 °C 11,3 km/h
05.09.2026 12:05 17,4 °C 87 % 1020,7 hPa 0,0 l/m² 8,0 km/h S-SW 202 ° 0 min 272 W/m² 15,2 °C 16,6 °C 14,5 km/h
05.09.2026 12:00 17,7 °C 88 % 1020,7 hPa 0,0 l/m² 6,4 km/h S 180 ° 0 min 411 W/m² 15,7 °C 17,7 °C 11,3 km/h
05.09.2026 11:55 17,5 °C 88 % 1020,7 hPa 0,0 l/m² 6,4 km/h S 180 ° 0 min 385 W/m² 15,5 °C 17,5 °C 14,5 km/h
05.09.2026 11:50 17,2 °C 92 % 1020,7 hPa 0,0 l/m² 4,8 km/h S 180 ° 0 min 432 W/m² 15,9 °C 17,2 °C 12,9 km/h
05.09.2026 11:45 16,7 °C 90 % 1020,7 hPa 0,0 l/m² 3,2 km/h S 180 ° 0 min 237 W/m² 15,0 °C 16,7 °C 9,7 km/h
05.09.2026 11:40 16,6 °C 91 % 1020,7 hPa 0,0 l/m² 1,6 km/h S 180 ° 0 min 232 W/m² 15,1 °C 16,6 °C 6,4 km/h
05.09.2026 11:35 16,5 °C 91 % 1020,8 hPa 0,0 l/m² 0,0 km/h S 180 ° 0 min 243 W/m² 15,0 °C 16,5 °C 6,4 km/h
05.09.2026 11:30 16,3 °C 90 % 1020,7 hPa 0,0 l/m² 1,6 km/h S 180 ° 0 min 209 W/m² 14,7 °C 16,3 °C 9,7 km/h
05.09.2026 11:25 16,3 °C 92 % 1020,7 hPa 0,0 l/m² 1,6 km/h S-SW 202 ° 0 min 186 W/m² 15,0 °C 16,3 °C 8,0 km/h
05.09.2026 11:20 16,0 °C 92 % 1020,7 hPa 0,0 l/m² 3,2 km/h S-SW 202 ° 0 min 185 W/m² 14,7 °C 16,0 °C 9,7 km/h
05.09.2026 11:15 16,0 °C 94 % 1020,8 hPa 0,0 l/m² 0,0 km/h N 0 ° 0 min 155 W/m² 15,0 °C 16,0 °C 0,0 km/h
05.09.2026 11:10 15,9 °C 94 % 1020,8 hPa 0,0 l/m² 1,6 km/h SO 135 ° 0 min 100 W/m² 14,9 °C 15,9 °C 6,4 km/h
05.09.2026 11:05 16,1 °C 93 % 1020,7 hPa 0,0 l/m² 4,8 km/h SO 135 ° 0 min 137 W/m² 15,0 °C 16,1 °C 11,3 km/h
05.09.2026 11:00 16,5 °C 92 % 1020,7 hPa 0,0 l/m² 4,8 km/h S-SO 157 ° 0 min 248 W/m² 15,2 °C 16,5 °C 11,3 km/h
05.09.2026 10:55 16,9 °C 92 % 1020,6 hPa 0,0 l/m² 3,2 km/h SO 135 ° 5 min 639 W/m² 15,6 °C 16,9 °C 9,7 km/h
05.09.2026 10:50 16,2 °C 95 % 1020,5 hPa 0,0 l/m² 0,0 km/h SO 135 ° 5 min 436 W/m² 15,4 °C 16,2 °C 1,6 km/h
05.09.2026 10:45 15,9 °C 96 % 1020,4 hPa 0,0 l/m² 0,0 km/h O-SO 112 ° 0 min 309 W/m² 15,3 °C 15,9 °C 4,8 km/h
05.09.2026 10:40 15,8 °C 97 % 1020,5 hPa 0,0 l/m² 0,0 km/h O-SO 112 ° 0 min 279 W/m² 15,3 °C 15,8 °C 6,4 km/h
05.09.2026 10:35 15,6 °C 97 % 1020,5 hPa 0,0 l/m² 1,6 km/h SO 135 ° 5 min 397 W/m² 15,1 °C 15,6 °C 6,4 km/h
05.09.2026 10:30 15,6 °C 97 % 1020,5 hPa 0,0 l/m² 3,2 km/h O-SO 112 ° 0 min 237 W/m² 15,1 °C 15,6 °C 9,7 km/h
05.09.2026 10:25 15,6 °C 97 % 1020,4 hPa 0,0 l/m² 0,0 km/h SO 135 ° 0 min 301 W/m² 15,1 °C 15,6 °C 3,2 km/h
05.09.2026 10:20 15,2 °C 97 % 1020,4 hPa 0,0 l/m² 0,0 km/h SO 135 ° 0 min 279 W/m² 14,7 °C 15,2 °C 3,2 km/h
05.09.2026 10:15 14,7 °C 97 % 1020,4 hPa 0,0 l/m² 0,0 km/h SO 135 ° 0 min 171 W/m² 14,2 °C 14,7 °C 1,6 km/h
05.09.2026 10:10 14,8 °C 97 % 1020,4 hPa 0,0 l/m² 0,0 km/h N 0 ° 0 min 130 W/m² 14,3 °C 14,8 °C 0,0 km/h
05.09.2026 10:05 14,6 °C 97 % 1020,4 hPa 0,0 l/m² 0,0 km/h SO 135 ° 0 min 176 W/m² 14,1 °C 14,6 °C 4,8 km/h
05.09.2026 10:00 14,6 °C 97 % 1020,4 hPa 0,0 l/m² 0,0 km/h SO 135 ° 0 min 151 W/m² 14,1 °C 14,6 °C 1,6 km/h
05.09.2026 09:55 14,3 °C 97 % 1020,4 hPa 0,0 l/m² 1,6 km/h SO 135 ° 0 min 137 W/m² 13,8 °C 14,3 °C 3,2 km/h
05.09.2026 09:50 14,3 °C 97 % 1020,1 hPa 0,0 l/m² 1,6 km/h SO 135 ° 0 min 216 W/m² 13,8 °C 14,3 °C 4,8 km/h
05.09.2026 09:45 14,4 °C 96 % 1020,2 hPa 0,0 l/m² 1,6 km/h SO 135 ° 0 min 211 W/m² 13,8 °C 14,4 °C 4,8 km/h
05.09.2026 09:40 14,6 °C 97 % 1020,0 hPa 0,0 l/m² 3,2 km/h S-SO 157 ° 0 min 214 W/m² 14,1 °C 14,6 °C 8,0 km/h
05.09.2026 09:35 14,4 °C 97 % 1020,1 hPa 0,0 l/m² 1,6 km/h S-SO 157 ° 0 min 227 W/m² 13,9 °C 14,4 °C 4,8 km/h
05.09.2026 09:30 14,2 °C 97 % 1019,9 hPa 0,0 l/m² 1,6 km/h S-SW 202 ° 0 min 197 W/m² 13,7 °C 14,2 °C 4,8 km/h
05.09.2026 09:25 13,9 °C 97 % 1019,9 hPa 0,0 l/m² 3,2 km/h S-SW 202 ° 0 min 225 W/m² 13,4 °C 13,9 °C 6,4 km/h
05.09.2026 09:20 13,9 °C 97 % 1019,9 hPa 0,0 l/m² 1,6 km/h S-SW 202 ° 0 min 272 W/m² 13,4 °C 13,9 °C 8,0 km/h
05.09.2026 09:15 13,7 °C 97 % 1020,0 hPa 0,0 l/m² 1,6 km/h S-SW 202 ° 0 min 98 W/m² 13,2 °C 13,7 °C 4,8 km/h
05.09.2026 09:10 13,7 °C 97 % 1020,1 hPa 0,0 l/m² 0,0 km/h S-SW 202 ° 0 min 118 W/m² 13,2 °C 13,7 °C 1,6 km/h
05.09.2026 09:05 13,6 °C 97 % 1020,0 hPa 0,0 l/m² 0,0 km/h S-SW 202 ° 0 min 139 W/m² 13,1 °C 13,6 °C 3,2 km/h
05.09.2026 09:00 13,5 °C 97 % 1019,9 hPa 0,0 l/m² 0,0 km/h S-SW 202 ° 0 min 125 W/m² 13,0 °C 13,5 °C 1,6 km/h
05.09.2026 08:55 13,4 °C 97 % 1019,8 hPa 0,0 l/m² 0,0 km/h S-SW 202 ° 0 min 77 W/m² 12,9 °C 13,4 °C 1,6 km/h
05.09.2026 08:50 13,3 °C 96 % 1019,7 hPa 0,0 l/m² 0,0 km/h S-SW 202 ° 0 min 56 W/m² 12,7 °C 13,3 °C 1,6 km/h
05.09.2026 08:45 13,2 °C 96 % 1019,3 hPa 0,0 l/m² 0,0 km/h S-SW 202 ° 0 min 63 W/m² 12,6 °C 13,2 °C 1,6 km/h
05.09.2026 08:40 13,2 °C 96 % 1019,5 hPa 0,0 l/m² 0,0 km/h S-SW 202 ° 0 min 63 W/m² 12,6 °C 13,2 °C 1,6 km/h
05.09.2026 08:35 13,1 °C 96 % 1019,3 hPa 0,0 l/m² 0,0 km/h S-SW 202 ° 0 min 47 W/m² 12,5 °C 13,1 °C 3,2 km/h
05.09.2026 08:30 13,0 °C 96 % 1019,4 hPa 0,0 l/m² 0,0 km/h N 0 ° 0 min 42 W/m² 12,4 °C 13,0 °C 0,0 km/h
05.09.2026 08:25 12,9 °C 96 % 1019,3 hPa 0,0 l/m² 0,0 km/h N 0 ° 0 min 46 W/m² 12,3 °C 12,9 °C 0,0 km/h
05.09.2026 08:20 12,9 °C 96 % 1019,4 hPa 0,0 l/m² 0,0 km/h S-SW 202 ° 0 min 42 W/m² 12,3 °C 12,9 °C 3,2 km/h
05.09.2026 08:15 12,8 °C 96 % 1019,5 hPa 0,0 l/m² 1,6 km/h S-SW 202 ° 0 min 33 W/m² 12,2 °C 12,8 °C 4,8 km/h
05.09.2026 08:10 12,8 °C 95 % 1019,4 hPa 0,0 l/m² 0,0 km/h S-SW 202 ° 0 min 33 W/m² 12,0 °C 12,8 °C 3,2 km/h
05.09.2026 08:05 12,8 °C 95 % 1019,2 hPa 0,0 l/m² 0,0 km/h S-SW 202 ° 0 min 35 W/m² 12,0 °C 12,8 °C 3,2 km/h
05.09.2026 08:00 12,7 °C 95 % 1019,0 hPa 0,0 l/m² 1,6 km/h S-SW 202 ° 0 min 33 W/m² 11,9 °C 12,7 °C 3,2 km/h
05.09.2026 07:55 12,7 °C 95 % 1019,2 hPa 0,0 l/m² 1,6 km/h S-SW 202 ° 0 min 21 W/m² 11,9 °C 12,7 °C 4,8 km/h
05.09.2026 07:50 12,7 °C 95 % 1019,0 hPa 0,0 l/m² 1,6 km/h S-SW 202 ° 0 min 12 W/m² 11,9 °C 12,7 °C 3,2 km/h
05.09.2026 07:45 12,7 °C 94 % 1018,7 hPa 0,0 l/m² 1,6 km/h S-SW 202 ° 0 min 11 W/m² 11,8 °C 12,7 °C 3,2 km/h
05.09.2026 07:40 12,7 °C 94 % 1018,7 hPa 0,0 l/m² 1,6 km/h S-SW 202 ° 0 min 11 W/m² 11,8 °C 12,7 °C 3,2 km/h
05.09.2026 07:35 12,7 °C 94 % 1018,6 hPa 0,0 l/m² 0,0 km/h S-SW 202 ° 0 min 11 W/m² 11,8 °C 12,7 °C 1,6 km/h
05.09.2026 07:30 12,8 °C 94 % 1018,6 hPa 0,0 l/m² 1,6 km/h S-SW 202 ° 0 min 12 W/m² 11,9 °C 12,8 °C 4,8 km/h
05.09.2026 07:25 12,8 °C 94 % 1018,5 hPa 0,0 l/m² 3,2 km/h S-SW 202 ° 0 min 11 W/m² 11,9 °C 12,8 °C 8,0 km/h
05.09.2026 07:20 12,8 °C 94 % 1018,4 hPa 0,0 l/m² 1,6 km/h W 270 ° 0 min 11 W/m² 11,9 °C 12,8 °C 4,8 km/h
05.09.2026 07:15 12,8 °C 93 % 1018,4 hPa 0,2 l/m² 3,2 km/h W-NW 292 ° 0 min 5 W/m² 11,7 °C 12,8 °C 4,8 km/h
05.09.2026 07:10 12,8 °C 93 % 1018,4 hPa 0,2 l/m² 3,2 km/h W-NW 292 ° 0 min 5 W/m² 11,7 °C 12,8 °C 4,8 km/h
05.09.2026 07:05 12,8 °C 93 % 1018,3 hPa 0,2 l/m² 0,0 km/h W-NW 292 ° 0 min 5 W/m² 11,7 °C 12,8 °C 3,2 km/h
05.09.2026 07:00 12,8 °C 92 % 1018,2 hPa 0,2 l/m² 1,6 km/h W-NW 292 ° 0 min 0 W/m² 11,5 °C 12,8 °C 4,8 km/h
05.09.2026 06:55 12,7 °C 92 % 1018,1 hPa 0,0 l/m² 0,0 km/h W-NW 292 ° 0 min 0 W/m² 11,4 °C 12,7 °C 3,2 km/h
05.09.2026 06:50 12,8 °C 92 % 1018,1 hPa 0,2 l/m² 0,0 km/h W-NW 292 ° 0 min 0 W/m² 11,5 °C 12,8 °C 1,6 km/h
05.09.2026 06:45 12,9 °C 91 % 1018,3 hPa 0,2 l/m² 0,0 km/h N 0 ° 0 min 0 W/m² 11,5 °C 12,9 °C 0,0 km/h
05.09.2026 06:40 12,9 °C 91 % 1018,5 hPa 0,2 l/m² 0,0 km/h W-NW 292 ° 0 min 0 W/m² 11,5 °C 12,9 °C 3,2 km/h
05.09.2026 06:35 13,1 °C 91 % 1018,8 hPa 0,2 l/m² 1,6 km/h W-NW 292 ° 0 min 0 W/m² 11,7 °C 13,1 °C 3,2 km/h
05.09.2026 06:30 13,1 °C 90 % 1018,2 hPa 0,2 l/m² 0,0 km/h W-NW 292 ° 0 min 0 W/m² 11,5 °C 13,1 °C 3,2 km/h
05.09.2026 06:25 13,2 °C 90 % 1018,3 hPa 0,4 l/m² 1,6 km/h W-NW 292 ° 0 min 0 W/m² 11,6 °C 13,2 °C 3,2 km/h
05.09.2026 06:20 13,3 °C 89 % 1018,5 hPa 0,2 l/m² 1,6 km/h W-NW 292 ° 0 min 0 W/m² 11,5 °C 13,3 °C 3,2 km/h
05.09.2026 06:15 13,4 °C 88 % 1018,5 hPa 0,4 l/m² 4,8 km/h W-NW 292 ° 0 min 0 W/m² 11,5 °C 13,4 °C 6,4 km/h
05.09.2026 06:10 13,6 °C 88 % 1018,4 hPa 0,0 l/m² 1,6 km/h W-NW 292 ° 0 min 0 W/m² 11,6 °C 13,6 °C 6,4 km/h
05.09.2026 06:05 13,8 °C 87 % 1018,4 hPa 0,4 l/m² 0,0 km/h W-NW 292 ° 0 min 0 W/m² 11,7 °C 13,8 °C 3,2 km/h
05.09.2026 06:00 13,8 °C 87 % 1018,4 hPa 0,4 l/m² 6,4 km/h W-NW 292 ° 0 min 0 W/m² 11,7 °C 13,8 °C 16,1 km/h
05.09.2026 05:55 14,1 °C 85 % 1018,6 hPa 0,2 l/m² 8,0 km/h NW 315 ° 0 min 0 W/m² 11,6 °C 13,2 °C 17,7 km/h
05.09.2026 05:50 14,4 °C 83 % 1018,0 hPa 0,4 l/m² 11,3 km/h N-NO 22 ° 0 min 0 W/m² 11,5 °C 11,9 °C 20,9 km/h
05.09.2026 05:45 14,7 °C 82 % 1018,2 hPa 0,0 l/m² 12,9 km/h NW 315 ° 0 min 0 W/m² 11,7 °C 11,6 °C 20,9 km/h
05.09.2026 05:40 15,1 °C 82 % 1018,2 hPa 0,0 l/m² 8,0 km/h NW 315 ° 0 min 0 W/m² 12,0 °C 14,2 °C 19,3 km/h
05.09.2026 05:35 15,2 °C 82 % 1018,0 hPa 0,2 l/m² 6,4 km/h W-NW 292 ° 0 min 0 W/m² 12,1 °C 15,2 °C 16,1 km/h
05.09.2026 05:30 15,4 °C 81 % 1017,8 hPa 0,0 l/m² 3,2 km/h N 360 ° 0 min 0 W/m² 12,2 °C 15,4 °C 9,7 km/h
05.09.2026 05:25 15,5 °C 81 % 1017,6 hPa 0,0 l/m² 4,8 km/h NW 315 ° 0 min 0 W/m² 12,3 °C 15,5 °C 12,9 km/h
05.09.2026 05:20 15,7 °C 79 % 1017,5 hPa 0,0 l/m² 6,4 km/h NW 315 ° 0 min 0 W/m² 12,1 °C 15,7 °C 14,5 km/h
05.09.2026 05:15 15,9 °C 78 % 1017,3 hPa 0,0 l/m² 8,0 km/h N 360 ° 0 min 0 W/m² 12,1 °C 15,0 °C 16,1 km/h
05.09.2026 05:10 16,2 °C 76 % 1017,2 hPa 0,0 l/m² 12,9 km/h NW 315 ° 0 min 0 W/m² 12,0 °C 13,3 °C 25,7 km/h
05.09.2026 05:05 16,8 °C 73 % 1017,2 hPa 0,0 l/m² 16,1 km/h NW 315 ° 0 min 0 W/m² 11,9 °C 13,1 °C 32,2 km/h
05.09.2026 05:00 17,4 °C 70 % 1017,0 hPa 0,2 l/m² 19,3 km/h NW 315 ° 0 min 0 W/m² 11,9 °C 13,0 °C 33,8 km/h
05.09.2026 04:55 18,1 °C 65 % 1016,9 hPa 0,0 l/m² 12,9 km/h NW 315 ° 0 min 0 W/m² 11,4 °C 15,6 °C 25,7 km/h
05.09.2026 04:50 18,4 °C 62 % 1016,8 hPa 0,0 l/m² 16,1 km/h NW 315 ° 0 min 0 W/m² 11,0 °C 15,0 °C 25,7 km/h
05.09.2026 04:45 18,6 °C 61 % 1017,0 hPa 0,0 l/m² 19,3 km/h W-NW 292 ° 0 min 0 W/m² 10,9 °C 14,5 °C 38,6 km/h
05.09.2026 04:40 18,9 °C 60 % 1016,5 hPa 0,0 l/m² 17,7 km/h NW 315 ° 0 min 0 W/m² 11,0 °C 15,3 °C 30,6 km/h
05.09.2026 04:35 19,2 °C 62 % 1016,5 hPa 0,0 l/m² 17,7 km/h NW 315 ° 0 min 0 W/m² 11,7 °C 15,6 °C 32,2 km/h
05.09.2026 04:30 19,4 °C 67 % 1016,6 hPa 0,0 l/m² 16,1 km/h NW 315 ° 0 min 0 W/m² 13,1 °C 16,3 °C 27,4 km/h
05.09.2026 04:25 19,6 °C 66 % 1016,5 hPa 0,0 l/m² 17,7 km/h NW 315 ° 0 min 0 W/m² 13,1 °C 16,1 °C 29,0 km/h
05.09.2026 04:20 19,8 °C 66 % 1016,1 hPa 0,0 l/m² 17,7 km/h NW 315 ° 0 min 0 W/m² 13,3 °C 16,4 °C 30,6 km/h
05.09.2026 04:15 19,9 °C 65 % 1015,9 hPa 0,0 l/m² 19,3 km/h NW 315 ° 0 min 0 W/m² 13,1 °C 16,2 °C 35,4 km/h
05.09.2026 04:10 20,1 °C 66 % 1015,6 hPa 0,0 l/m² 16,1 km/h NW 315 ° 0 min 0 W/m² 13,5 °C 17,1 °C 33,8 km/h
05.09.2026 04:05 20,2 °C 68 % 1015,3 hPa 0,0 l/m² 16,1 km/h NW 315 ° 0 min 0 W/m² 14,1 °C 17,2 °C 29,0 km/h
05.09.2026 04:00 20,2 °C 69 % 1015,3 hPa 0,0 l/m² 17,7 km/h NW 315 ° 0 min 0 W/m² 14,3 °C 16,9 °C 32,2 km/h
05.09.2026 03:55 20,2 °C 69 % 1015,4 hPa 0,0 l/m² 17,7 km/h NW 315 ° 0 min 0 W/m² 14,3 °C 16,9 °C 30,6 km/h
05.09.2026 03:50 20,2 °C 69 % 1015,1 hPa 0,0 l/m² 14,5 km/h NW 315 ° 0 min 0 W/m² 14,3 °C 17,6 °C 27,4 km/h
05.09.2026 03:45 20,2 °C 70 % 1015,1 hPa 0,0 l/m² 12,9 km/h W-NW 292 ° 0 min 0 W/m² 14,5 °C 18,0 °C 25,7 km/h
05.09.2026 03:40 20,2 °C 72 % 1015,0 hPa 0,0 l/m² 11,3 km/h NW 315 ° 0 min 0 W/m² 15,0 °C 18,5 °C 20,9 km/h
05.09.2026 03:35 20,2 °C 74 % 1014,9 hPa 0,0 l/m² 6,4 km/h NW 315 ° 0 min 0 W/m² 15,4 °C 20,2 °C 16,1 km/h
05.09.2026 03:30 20,3 °C 74 % 1014,8 hPa 0,0 l/m² 8,0 km/h NW 315 ° 0 min 0 W/m² 15,5 °C 19,7 °C 14,5 km/h
05.09.2026 03:25 20,3 °C 74 % 1014,9 hPa 0,0 l/m² 6,4 km/h NW 315 ° 0 min 0 W/m² 15,5 °C 20,3 °C 12,9 km/h
05.09.2026 03:20 20,3 °C 74 % 1014,8 hPa 0,0 l/m² 8,0 km/h NW 315 ° 0 min 0 W/m² 15,5 °C 19,7 °C 14,5 km/h
05.09.2026 03:15 20,4 °C 74 % 1014,6 hPa 0,0 l/m² 8,0 km/h NW 315 ° 0 min 0 W/m² 15,6 °C 19,8 °C 16,1 km/h
05.09.2026 03:10 20,4 °C 74 % 1014,6 hPa 0,0 l/m² 8,0 km/h NW 315 ° 0 min 0 W/m² 15,6 °C 19,8 °C 17,7 km/h
05.09.2026 03:05 20,5 °C 74 % 1014,3 hPa 0,0 l/m² 11,3 km/h N-NO 22 ° 0 min 0 W/m² 15,7 °C 18,8 °C 17,7 km/h
05.09.2026 03:00 20,6 °C 74 % 1014,4 hPa 0,0 l/m² 12,9 km/h NW 315 ° 0 min 0 W/m² 15,8 °C 18,5 °C 25,7 km/h
05.09.2026 02:55 20,6 °C 75 % 1014,6 hPa 0,0 l/m² 9,7 km/h NW 315 ° 0 min 0 W/m² 16,0 °C 19,4 °C 17,7 km/h
05.09.2026 02:50 20,7 °C 74 % 1014,5 hPa 0,0 l/m² 9,7 km/h NW 315 ° 0 min 0 W/m² 15,9 °C 19,5 °C 19,3 km/h
05.09.2026 02:45 20,9 °C 74 % 1014,4 hPa 0,0 l/m² 12,9 km/h NW 315 ° 0 min 0 W/m² 16,1 °C 18,8 °C 27,4 km/h
05.09.2026 02:40 21,0 °C 74 % 1014,4 hPa 0,0 l/m² 12,9 km/h NW 315 ° 0 min 0 W/m² 16,2 °C 19,0 °C 33,8 km/h
05.09.2026 02:35 21,2 °C 73 % 1014,3 hPa 0,0 l/m² 16,1 km/h NW 315 ° 0 min 0 W/m² 16,2 °C 18,5 °C 27,4 km/h
05.09.2026 02:30 21,3 °C 73 % 1013,8 hPa 0,0 l/m² 19,3 km/h NW 315 ° 0 min 0 W/m² 16,3 °C 18,0 °C 32,2 km/h
05.09.2026 02:25 21,3 °C 74 % 1014,0 hPa 0,0 l/m² 17,7 km/h N-NO 22 ° 0 min 0 W/m² 16,5 °C 18,3 °C 41,8 km/h
05.09.2026 02:20 21,0 °C 74 % 1013,7 hPa 0,0 l/m² 8,0 km/h W-NW 292 ° 0 min 0 W/m² 16,2 °C 20,4 °C 41,8 km/h
05.09.2026 02:15 21,2 °C 73 % 1013,5 hPa 0,0 l/m² 1,6 km/h W-NW 292 ° 0 min 0 W/m² 16,2 °C 21,2 °C 4,8 km/h
05.09.2026 02:10 21,3 °C 72 % 1013,5 hPa 0,0 l/m² 3,2 km/h W-NW 292 ° 0 min 0 W/m² 16,0 °C 21,3 °C 4,8 km/h
05.09.2026 02:05 21,2 °C 72 % 1013,5 hPa 0,0 l/m² 1,6 km/h W-NW 292 ° 0 min 0 W/m² 15,9 °C 21,2 °C 4,8 km/h
05.09.2026 02:00 21,1 °C 72 % 1013,3 hPa 0,0 l/m² 1,6 km/h W-NW 292 ° 0 min 0 W/m² 15,8 °C 21,1 °C 4,8 km/h
05.09.2026 01:55 21,4 °C 72 % 1013,4 hPa 0,0 l/m² 3,2 km/h W-NW 292 ° 0 min 0 W/m² 16,1 °C 21,4 °C 6,4 km/h
05.09.2026 01:50 21,3 °C 72 % 1013,4 hPa 0,0 l/m² 1,6 km/h W-NW 292 ° 0 min 0 W/m² 16,0 °C 21,3 °C 6,4 km/h
05.09.2026 01:45 21,3 °C 73 % 1013,3 hPa 0,0 l/m² 3,2 km/h W-NW 292 ° 0 min 0 W/m² 16,3 °C 21,3 °C 4,8 km/h
05.09.2026 01:40 20,7 °C 73 % 1013,3 hPa 0,0 l/m² 0,0 km/h W-NW 292 ° 0 min 0 W/m² 15,7 °C 20,7 °C 3,2 km/h
05.09.2026 01:35 20,7 °C 74 % 1013,2 hPa 0,0 l/m² 1,6 km/h W-NW 292 ° 0 min 0 W/m² 15,9 °C 20,7 °C 3,2 km/h
05.09.2026 01:30 20,4 °C 75 % 1013,2 hPa 0,0 l/m² 3,2 km/h W-NW 292 ° 0 min 0 W/m² 15,8 °C 20,4 °C 4,8 km/h
05.09.2026 01:25 20,2 °C 75 % 1013,0 hPa 0,0 l/m² 3,2 km/h W 270 ° 0 min 0 W/m² 15,6 °C 20,2 °C 6,4 km/h
05.09.2026 01:20 20,1 °C 75 % 1013,0 hPa 0,0 l/m² 3,2 km/h W 270 ° 0 min 0 W/m² 15,5 °C 20,1 °C 4,8 km/h
05.09.2026 01:15 20,0 °C 76 % 1013,0 hPa 0,0 l/m² 3,2 km/h W 270 ° 0 min 0 W/m² 15,6 °C 20,0 °C 4,8 km/h
05.09.2026 01:10 19,9 °C 76 % 1012,9 hPa 0,0 l/m² 3,2 km/h W 270 ° 0 min 0 W/m² 15,5 °C 19,9 °C 4,8 km/h
05.09.2026 01:05 20,0 °C 76 % 1012,9 hPa 0,0 l/m² 1,6 km/h W 270 ° 0 min 0 W/m² 15,6 °C 20,0 °C 9,7 km/h
05.09.2026 01:00 19,9 °C 76 % 1012,8 hPa 0,0 l/m² 0,0 km/h SW 225 ° 0 min 0 W/m² 15,5 °C 19,9 °C 4,8 km/h
05.09.2026 00:55 20,1 °C 75 % 1012,8 hPa 0,0 l/m² 1,6 km/h SW 225 ° 0 min 0 W/m² 15,5 °C 20,1 °C 3,2 km/h
05.09.2026 00:50 20,3 °C 74 % 1012,8 hPa 0,0 l/m² 0,0 km/h SW 225 ° 0 min 0 W/m² 15,5 °C 20,3 °C 3,2 km/h
05.09.2026 00:45 20,4 °C 74 % 1012,9 hPa 0,0 l/m² 1,6 km/h SW 225 ° 0 min 0 W/m² 15,6 °C 20,4 °C 3,2 km/h
05.09.2026 00:40 20,6 °C 73 % 1012,8 hPa 0,0 l/m² 1,6 km/h SW 225 ° 0 min 0 W/m² 15,6 °C 20,6 °C 3,2 km/h
05.09.2026 00:35 20,7 °C 73 % 1012,9 hPa 0,0 l/m² 1,6 km/h SW 225 ° 0 min 0 W/m² 15,7 °C 20,7 °C 3,2 km/h
05.09.2026 00:30 20,6 °C 73 % 1012,8 hPa 0,0 l/m² 3,2 km/h SW 225 ° 0 min 0 W/m² 15,6 °C 20,6 °C 4,8 km/h
05.09.2026 00:25 20,7 °C 73 % 1012,8 hPa 0,0 l/m² 1,6 km/h S-SW 202 ° 0 min 0 W/m² 15,7 °C 20,7 °C 4,8 km/h
05.09.2026 00:20 20,9 °C 72 % 1012,7 hPa 0,0 l/m² 1,6 km/h S-SW 202 ° 0 min 0 W/m² 15,7 °C 20,9 °C 3,2 km/h
05.09.2026 00:15 21,1 °C 72 % 1012,6 hPa 0,0 l/m² 1,6 km/h S-SW 202 ° 0 min 0 W/m² 15,8 °C 21,1 °C 3,2 km/h
05.09.2026 00:10 21,2 °C 72 % 1012,5 hPa 0,0 l/m² 1,6 km/h S-SW 202 ° 0 min 0 W/m² 15,9 °C 21,2 °C 4,8 km/h
05.09.2026 00:05 21,9 °C 69 % 1012,5 hPa 0,0 l/m² 3,2 km/h S-SW 202 ° 0 min 0 W/m² 15,9 °C 21,9 °C 6,4 km/h
05.09.2026 00:00 22,1 °C 68 % 1012,4 hPa 0,0 l/m² 1,6 km/h S-SW 202 ° 0 min 0 W/m² 15,9 °C 22,1 °C 3,2 km/h
04.09.2026 23:55 21,8 °C 70 % 1012,3 hPa 0,0 l/m² 0,0 km/h S-SW 202 ° 0 min 0 W/m² 16,1 °C 21,8 °C 1,6 km/h
04.09.2026 23:50 21,7 °C 70 % 1012,3 hPa 0,0 l/m² 0,0 km/h S-SW 202 ° 0 min 0 W/m² 16,0 °C 21,7 °C 1,6 km/h
04.09.2026 23:45 22,2 °C 69 % 1012,2 hPa 0,0 l/m² 3,2 km/h S-SW 202 ° 0 min 0 W/m² 16,2 °C 22,2 °C 4,8 km/h
04.09.2026 23:40 21,9 °C 69 % 1012,2 hPa 0,0 l/m² 3,2 km/h S-SW 202 ° 0 min 0 W/m² 15,9 °C 21,9 °C 4,8 km/h
04.09.2026 23:35 21,8 °C 70 % 1012,2 hPa 0,0 l/m² 3,2 km/h S-SW 202 ° 0 min 0 W/m² 16,1 °C 21,8 °C 4,8 km/h
04.09.2026 23:30 21,6 °C 70 % 1012,2 hPa 0,0 l/m² 1,6 km/h S-SW 202 ° 0 min 0 W/m² 15,9 °C 21,6 °C 3,2 km/h
04.09.2026 23:25 22,0 °C 69 % 1012,1 hPa 0,0 l/m² 0,0 km/h S-SW 202 ° 0 min 0 W/m² 16,0 °C 22,0 °C 3,2 km/h
04.09.2026 23:20 22,5 °C 67 % 1012,0 hPa 0,0 l/m² 3,2 km/h S-SW 202 ° 0 min 0 W/m² 16,1 °C 22,5 °C 4,8 km/h
04.09.2026 23:15 22,8 °C 66 % 1012,1 hPa 0,0 l/m² 3,2 km/h S-SW 202 ° 0 min 0 W/m² 16,1 °C 22,8 °C 6,4 km/h
04.09.2026 23:10 23,2 °C 65 % 1012,0 hPa 0,0 l/m² 3,2 km/h S-SW 202 ° 0 min 0 W/m² 16,2 °C 23,2 °C 6,4 km/h
04.09.2026 23:05 22,9 °C 65 % 1012,0 hPa 0,0 l/m² 1,6 km/h W-NW 292 ° 0 min 0 W/m² 16,0 °C 22,9 °C 3,2 km/h
04.09.2026 23:00 23,0 °C 65 % 1011,9 hPa 0,0 l/m² 3,2 km/h W-NW 292 ° 0 min 0 W/m² 16,1 °C 23,0 °C 6,4 km/h
04.09.2026 22:55 22,3 °C 67 % 1011,9 hPa 0,0 l/m² 1,6 km/h W-SW 247 ° 0 min 0 W/m² 15,9 °C 22,3 °C 4,8 km/h
04.09.2026 22:50 22,3 °C 67 % 1012,0 hPa 0,0 l/m² 1,6 km/h W-SW 247 ° 0 min 0 W/m² 15,9 °C 22,3 °C 3,2 km/h
04.09.2026 22:45 23,1 °C 64 % 1011,9 hPa 0,0 l/m² 1,6 km/h W-SW 247 ° 0 min 0 W/m² 15,9 °C 23,1 °C 4,8 km/h
04.09.2026 22:40 23,1 °C 64 % 1012,0 hPa 0,0 l/m² 3,2 km/h W-SW 247 ° 0 min 0 W/m² 15,9 °C 23,1 °C 6,4 km/h
04.09.2026 22:35 23,4 °C 64 % 1012,0 hPa 0,0 l/m² 3,2 km/h NW 315 ° 0 min 0 W/m² 16,2 °C 23,4 °C 6,4 km/h
04.09.2026 22:30 23,7 °C 62 % 1012,0 hPa 0,0 l/m² 1,6 km/h NW 315 ° 0 min 0 W/m² 16,0 °C 23,7 °C 3,2 km/h
04.09.2026 22:25 23,5 °C 63 % 1012,0 hPa 0,0 l/m² 1,6 km/h NW 315 ° 0 min 0 W/m² 16,0 °C 23,5 °C 3,2 km/h
04.09.2026 22:20 23,5 °C 63 % 1012,0 hPa 0,0 l/m² 1,6 km/h NW 315 ° 0 min 0 W/m² 16,0 °C 23,5 °C 4,8 km/h
04.09.2026 22:15 23,6 °C 62 % 1012,0 hPa 0,0 l/m² 1,6 km/h NW 315 ° 0 min 0 W/m² 15,9 °C 23,6 °C 3,2 km/h
04.09.2026 22:10 23,4 °C 64 % 1011,8 hPa 0,0 l/m² 1,6 km/h NW 315 ° 0 min 0 W/m² 16,2 °C 23,4 °C 4,8 km/h
04.09.2026 22:05 23,3 °C 64 % 1011,9 hPa 0,0 l/m² 3,2 km/h NW 315 ° 0 min 0 W/m² 16,1 °C 23,3 °C 6,4 km/h
04.09.2026 22:00 23,3 °C 63 % 1011,8 hPa 0,0 l/m² 3,2 km/h NW 315 ° 0 min 0 W/m² 15,9 °C 23,3 °C 6,4 km/h
04.09.2026 21:55 23,3 °C 63 % 1011,9 hPa 0,0 l/m² 1,6 km/h N 360 ° 0 min 0 W/m² 15,9 °C 23,3 °C 4,8 km/h
04.09.2026 21:50 22,6 °C 66 % 1011,9 hPa 0,0 l/m² 1,6 km/h N 360 ° 0 min 0 W/m² 15,9 °C 22,6 °C 4,8 km/h
04.09.2026 21:45 22,2 °C 68 % 1011,9 hPa 0,0 l/m² 1,6 km/h N 360 ° 0 min 0 W/m² 16,0 °C 22,2 °C 4,8 km/h
04.09.2026 21:40 22,3 °C 68 % 1011,9 hPa 0,0 l/m² 1,6 km/h N 360 ° 0 min 0 W/m² 16,1 °C 22,3 °C 4,8 km/h
04.09.2026 21:35 22,6 °C 67 % 1012,0 hPa 0,0 l/m² 1,6 km/h N 360 ° 0 min 0 W/m² 16,2 °C 22,6 °C 3,2 km/h
04.09.2026 21:30 22,8 °C 66 % 1012,0 hPa 0,0 l/m² 1,6 km/h N 360 ° 0 min 0 W/m² 16,1 °C 22,8 °C 3,2 km/h
04.09.2026 21:25 23,1 °C 64 % 1012,0 hPa 0,0 l/m² 1,6 km/h N 360 ° 0 min 0 W/m² 15,9 °C 23,1 °C 4,8 km/h
04.09.2026 21:20 23,1 °C 65 % 1012,0 hPa 0,0 l/m² 1,6 km/h N 360 ° 0 min 0 W/m² 16,2 °C 23,1 °C 3,2 km/h
04.09.2026 21:15 23,1 °C 64 % 1012,1 hPa 0,0 l/m² 1,6 km/h N 360 ° 0 min 0 W/m² 15,9 °C 23,1 °C 3,2 km/h
04.09.2026 21:10 23,4 °C 63 % 1012,1 hPa 0,0 l/m² 1,6 km/h N 360 ° 0 min 0 W/m² 15,9 °C 23,4 °C 3,2 km/h
04.09.2026 21:05 23,5 °C 63 % 1011,9 hPa 0,0 l/m² 1,6 km/h N 360 ° 0 min 0 W/m² 16,0 °C 23,5 °C 3,2 km/h
04.09.2026 21:00 23,6 °C 63 % 1011,7 hPa 0,0 l/m² 3,2 km/h N 360 ° 0 min 0 W/m² 16,1 °C 23,6 °C 4,8 km/h
04.09.2026 20:55 23,6 °C 64 % 1011,6 hPa 0,0 l/m² 3,2 km/h N 360 ° 0 min 0 W/m² 16,4 °C 23,6 °C 4,8 km/h
04.09.2026 20:50 23,8 °C 63 % 1011,7 hPa 0,0 l/m² 3,2 km/h N 360 ° 0 min 0 W/m² 16,3 °C 23,8 °C 4,8 km/h
04.09.2026 20:45 23,7 °C 63 % 1011,6 hPa 0,0 l/m² 3,2 km/h N 360 ° 0 min 0 W/m² 16,2 °C 23,7 °C 4,8 km/h
04.09.2026 20:40 23,7 °C 63 % 1011,5 hPa 0,0 l/m² 3,2 km/h N 360 ° 0 min 0 W/m² 16,2 °C 23,7 °C 4,8 km/h
04.09.2026 20:35 24,2 °C 62 % 1011,5 hPa 0,0 l/m² 1,6 km/h N 360 ° 0 min 0 W/m² 16,4 °C 24,2 °C 3,2 km/h
04.09.2026 20:30 24,4 °C 61 % 1011,4 hPa 0,0 l/m² 3,2 km/h N 360 ° 0 min 0 W/m² 16,4 °C 24,4 °C 6,4 km/h
04.09.2026 20:25 24,7 °C 60 % 1011,4 hPa 0,0 l/m² 3,2 km/h NW 315 ° 0 min 0 W/m² 16,4 °C 24,7 °C 6,4 km/h
04.09.2026 20:20 25,1 °C 59 % 1011,3 hPa 0,0 l/m² 4,8 km/h W-NW 292 ° 0 min 0 W/m² 16,5 °C 25,1 °C 6,4 km/h
04.09.2026 20:15 25,6 °C 57 % 1011,3 hPa 0,0 l/m² 1,6 km/h W 270 ° 0 min 0 W/m² 16,4 °C 25,6 °C 4,8 km/h
04.09.2026 20:10 26,1 °C 56 % 1011,3 hPa 0,0 l/m² 1,6 km/h W 270 ° 0 min 0 W/m² 16,6 °C 26,1 °C 3,2 km/h
04.09.2026 20:05 26,8 °C 53 % 1011,1 hPa 0,0 l/m² 1,6 km/h W 270 ° 0 min 0 W/m² 16,4 °C 26,8 °C 3,2 km/h
04.09.2026 20:00 26,9 °C 52 % 1011,1 hPa 0,0 l/m² 3,2 km/h W 270 ° 0 min 0 W/m² 16,2 °C 26,9 °C 6,4 km/h
04.09.2026 19:55 26,9 °C 53 % 1011,1 hPa 0,0 l/m² 3,2 km/h W 270 ° 0 min 0 W/m² 16,5 °C 26,9 °C 6,4 km/h
04.09.2026 19:50 27,0 °C 52 % 1011,1 hPa 0,0 l/m² 3,2 km/h W 270 ° 0 min 5 W/m² 16,3 °C 27,0 °C 9,7 km/h
04.09.2026 19:45 27,1 °C 52 % 1011,1 hPa 0,0 l/m² 3,2 km/h W-NW 292 ° 0 min 7 W/m² 16,4 °C 27,1 °C 9,7 km/h
04.09.2026 19:40 27,2 °C 52 % 1011,1 hPa 0,0 l/m² 3,2 km/h W 270 ° 0 min 9 W/m² 16,5 °C 27,2 °C 6,4 km/h
04.09.2026 19:35 27,1 °C 52 % 1011,1 hPa 0,0 l/m² 1,6 km/h S-SO 157 ° 5 min 11 W/m² 16,4 °C 27,1 °C 4,8 km/h
04.09.2026 19:30 27,2 °C 53 % 1011,1 hPa 0,0 l/m² 1,6 km/h S-SO 157 ° 0 min 12 W/m² 16,8 °C 27,2 °C 6,4 km/h
04.09.2026 19:25 27,3 °C 52 % 1011,1 hPa 0,0 l/m² 3,2 km/h N-NO 22 ° 0 min 12 W/m² 16,6 °C 27,3 °C 9,7 km/h
04.09.2026 19:20 27,0 °C 53 % 1011,0 hPa 0,0 l/m² 3,2 km/h O-SO 112 ° 0 min 14 W/m² 16,6 °C 27,0 °C 6,4 km/h
04.09.2026 19:15 27,3 °C 52 % 1011,0 hPa 0,0 l/m² 1,6 km/h O-SO 112 ° 0 min 16 W/m² 16,6 °C 27,3 °C 4,8 km/h
04.09.2026 19:10 27,3 °C 52 % 1011,0 hPa 0,0 l/m² 3,2 km/h O-SO 112 ° 0 min 18 W/m² 16,6 °C 27,3 °C 6,4 km/h
04.09.2026 19:05 27,6 °C 51 % 1011,0 hPa 0,0 l/m² 1,6 km/h O-SO 112 ° 0 min 18 W/m² 16,5 °C 27,6 °C 6,4 km/h
04.09.2026 19:00 27,7 °C 51 % 1011,0 hPa 0,0 l/m² 3,2 km/h S-SW 202 ° 0 min 19 W/m² 16,6 °C 27,7 °C 6,4 km/h
04.09.2026 18:55 28,2 °C 50 % 1011,0 hPa 0,0 l/m² 1,6 km/h SW 225 ° 0 min 21 W/m² 16,8 °C 28,2 °C 4,8 km/h
04.09.2026 18:50 28,9 °C 47 % 1011,1 hPa 0,0 l/m² 3,2 km/h SW 225 ° 0 min 79 W/m² 16,4 °C 28,9 °C 6,4 km/h
04.09.2026 18:45 29,3 °C 46 % 1011,1 hPa 0,0 l/m² 3,2 km/h N-NO 22 ° 5 min 105 W/m² 16,5 °C 29,3 °C 14,5 km/h
04.09.2026 18:40 29,4 °C 47 % 1011,1 hPa 0,0 l/m² 3,2 km/h N-NO 22 ° 5 min 116 W/m² 16,9 °C 29,4 °C 11,3 km/h
04.09.2026 18:35 29,6 °C 47 % 1011,0 hPa 0,0 l/m² 4,8 km/h W 270 ° 0 min 116 W/m² 17,1 °C 29,6 °C 9,7 km/h
04.09.2026 18:30 29,8 °C 45 % 1011,1 hPa 0,0 l/m² 6,4 km/h O-NO 67 ° 0 min 111 W/m² 16,6 °C 29,8 °C 19,3 km/h
04.09.2026 18:25 29,9 °C 45 % 1011,1 hPa 0,0 l/m² 1,6 km/h SW 225 ° 0 min 100 W/m² 16,7 °C 29,9 °C 6,4 km/h
04.09.2026 18:20 30,1 °C 45 % 1011,2 hPa 0,0 l/m² 3,2 km/h SW 225 ° 0 min 91 W/m² 16,8 °C 30,1 °C 11,3 km/h
04.09.2026 18:15 30,3 °C 44 % 1011,2 hPa 0,0 l/m² 3,2 km/h W-SW 247 ° 0 min 86 W/m² 16,7 °C 30,3 °C 11,3 km/h
04.09.2026 18:10 30,5 °C 44 % 1011,2 hPa 0,0 l/m² 4,8 km/h SO 135 ° 0 min 84 W/m² 16,8 °C 30,5 °C 9,7 km/h
04.09.2026 18:05 30,6 °C 43 % 1011,2 hPa 0,0 l/m² 4,8 km/h S 180 ° 0 min 104 W/m² 16,6 °C 30,6 °C 14,5 km/h
04.09.2026 18:00 30,5 °C 45 % 1011,3 hPa 0,0 l/m² 3,2 km/h S 180 ° 0 min 148 W/m² 17,2 °C 30,5 °C 8,0 km/h
04.09.2026 17:55 30,1 °C 44 % 1011,2 hPa 0,0 l/m² 4,8 km/h N-NO 22 ° 0 min 185 W/m² 16,5 °C 30,1 °C 9,7 km/h
04.09.2026 17:50 30,1 °C 45 % 1011,4 hPa 0,0 l/m² 8,0 km/h S-SW 202 ° 5 min 229 W/m² 16,8 °C 30,0 °C 16,1 km/h
04.09.2026 17:45 30,3 °C 45 % 1011,5 hPa 0,0 l/m² 4,8 km/h SW 225 ° 5 min 260 W/m² 17,0 °C 30,3 °C 11,3 km/h
04.09.2026 17:40 30,7 °C 44 % 1011,5 hPa 0,0 l/m² 4,8 km/h SW 225 ° 5 min 290 W/m² 17,0 °C 30,7 °C 8,0 km/h
04.09.2026 17:35 30,8 °C 44 % 1011,5 hPa 0,0 l/m² 4,8 km/h S-SO 157 ° 5 min 302 W/m² 17,1 °C 30,8 °C 9,7 km/h
04.09.2026 17:30 30,8 °C 43 % 1011,5 hPa 0,0 l/m² 3,2 km/h W-NW 292 ° 5 min 318 W/m² 16,7 °C 30,8 °C 9,7 km/h
04.09.2026 17:25 30,4 °C 44 % 1011,6 hPa 0,0 l/m² 4,8 km/h W-SW 247 ° 5 min 330 W/m² 16,7 °C 30,4 °C 16,1 km/h
04.09.2026 17:20 30,8 °C 44 % 1011,6 hPa 0,0 l/m² 4,8 km/h S-SW 202 ° 5 min 339 W/m² 17,1 °C 30,8 °C 12,9 km/h
04.09.2026 17:15 30,4 °C 43 % 1011,6 hPa 0,0 l/m² 6,4 km/h NW 315 ° 5 min 357 W/m² 16,4 °C 30,4 °C 22,5 km/h
04.09.2026 17:10 30,4 °C 45 % 1011,7 hPa 0,0 l/m² 6,4 km/h S 180 ° 5 min 371 W/m² 17,1 °C 30,4 °C 12,9 km/h
04.09.2026 17:05 30,4 °C 45 % 1011,8 hPa 0,0 l/m² 6,4 km/h W-SW 247 ° 5 min 381 W/m² 17,1 °C 30,4 °C 17,7 km/h
04.09.2026 17:00 30,0 °C 44 % 1011,8 hPa 0,0 l/m² 9,7 km/h S 180 ° 5 min 397 W/m² 16,4 °C 29,7 °C 24,1 km/h
04.09.2026 16:55 30,1 °C 44 % 1011,9 hPa 0,0 l/m² 11,3 km/h S 180 ° 5 min 404 W/m² 16,5 °C 29,7 °C 24,1 km/h
04.09.2026 16:50 30,0 °C 44 % 1011,9 hPa 0,0 l/m² 12,9 km/h S-SW 202 ° 5 min 422 W/m² 16,4 °C 29,5 °C 29,0 km/h
04.09.2026 16:45 30,0 °C 44 % 1012,0 hPa 0,0 l/m² 11,3 km/h S 180 ° 5 min 432 W/m² 16,4 °C 29,6 °C 22,5 km/h
04.09.2026 16:40 29,9 °C 43 % 1012,1 hPa 0,0 l/m² 11,3 km/h S-SW 202 ° 5 min 441 W/m² 15,9 °C 29,5 °C 22,5 km/h
04.09.2026 16:35 30,4 °C 44 % 1012,2 hPa 0,0 l/m² 6,4 km/h S-SW 202 ° 5 min 452 W/m² 16,7 °C 30,4 °C 14,5 km/h
04.09.2026 16:30 30,7 °C 44 % 1012,4 hPa 0,0 l/m² 6,4 km/h W-SW 247 ° 5 min 471 W/m² 17,0 °C 30,7 °C 17,7 km/h
04.09.2026 16:25 30,2 °C 44 % 1012,4 hPa 0,0 l/m² 11,3 km/h S-SW 202 ° 5 min 480 W/m² 16,6 °C 29,8 °C 19,3 km/h
04.09.2026 16:20 30,4 °C 45 % 1012,5 hPa 0,0 l/m² 4,8 km/h NW 315 ° 5 min 487 W/m² 17,1 °C 30,4 °C 17,7 km/h
04.09.2026 16:15 29,9 °C 45 % 1012,5 hPa 0,0 l/m² 8,0 km/h W 270 ° 5 min 504 W/m² 16,7 °C 29,7 °C 16,1 km/h
04.09.2026 16:10 30,3 °C 44 % 1012,5 hPa 0,0 l/m² 8,0 km/h S 180 ° 5 min 519 W/m² 16,7 °C 30,2 °C 20,9 km/h
04.09.2026 16:05 30,4 °C 43 % 1012,6 hPa 0,0 l/m² 8,0 km/h SW 225 ° 5 min 527 W/m² 16,4 °C 30,3 °C 22,5 km/h
04.09.2026 16:00 30,6 °C 44 % 1012,7 hPa 0,0 l/m² 4,8 km/h W 270 ° 5 min 527 W/m² 16,9 °C 30,6 °C 12,9 km/h
04.09.2026 15:55 30,3 °C 44 % 1012,9 hPa 0,0 l/m² 6,4 km/h W-SW 247 ° 5 min 531 W/m² 16,7 °C 30,3 °C 17,7 km/h
04.09.2026 15:50 30,1 °C 44 % 1012,9 hPa 0,0 l/m² 4,8 km/h W-SW 247 ° 5 min 547 W/m² 16,5 °C 30,1 °C 11,3 km/h
04.09.2026 15:45 29,8 °C 46 % 1012,9 hPa 0,0 l/m² 6,4 km/h S-SW 202 ° 5 min 564 W/m² 16,9 °C 29,8 °C 16,1 km/h
04.09.2026 15:40 29,8 °C 45 % 1013,1 hPa 0,0 l/m² 6,4 km/h S-SW 202 ° 5 min 575 W/m² 16,6 °C 29,8 °C 17,7 km/h
04.09.2026 15:35 30,0 °C 44 % 1013,0 hPa 0,0 l/m² 6,4 km/h W-SW 247 ° 5 min 584 W/m² 16,4 °C 30,0 °C 24,1 km/h
04.09.2026 15:30 29,6 °C 45 % 1013,1 hPa 0,0 l/m² 8,0 km/h S-SO 157 ° 5 min 591 W/m² 16,4 °C 29,4 °C 24,1 km/h
04.09.2026 15:25 29,5 °C 45 % 1013,0 hPa 0,0 l/m² 12,9 km/h S 180 ° 5 min 603 W/m² 16,3 °C 28,9 °C 24,1 km/h
04.09.2026 15:20 30,1 °C 44 % 1013,0 hPa 0,0 l/m² 8,0 km/h W 270 ° 5 min 613 W/m² 16,5 °C 30,0 °C 24,1 km/h
04.09.2026 15:15 29,4 °C 44 % 1013,1 hPa 0,0 l/m² 9,7 km/h S-SW 202 ° 5 min 622 W/m² 15,8 °C 29,1 °C 19,3 km/h
04.09.2026 15:10 29,6 °C 46 % 1013,3 hPa 0,0 l/m² 12,9 km/h S-SW 202 ° 5 min 626 W/m² 16,7 °C 29,0 °C 20,9 km/h
04.09.2026 15:05 29,8 °C 46 % 1013,4 hPa 0,0 l/m² 8,0 km/h S 180 ° 5 min 636 W/m² 16,9 °C 29,6 °C 17,7 km/h
04.09.2026 15:00 29,6 °C 47 % 1013,5 hPa 0,0 l/m² 8,0 km/h S-SW 202 ° 5 min 645 W/m² 17,1 °C 29,4 °C 20,9 km/h
_ Min-Zeit 06:55 16:05 18:35 - 23:25 - - - - 04:45 05:45 06:45
Minimum _ 12,7 °C 43 % 1011,0 hPa - 0,0 km/h - - - - 10,9 °C 11,6 °C 0,0 km/h
_ Max-Zeit 17:40 08:55 11:10 05:50 02:30 - - 15:00 13:20 13:25 17:20 02:20
Maximum _ 31,0 °C 97 % 1020,8 hPa 0,4 l/m² 19,3 km/h
NW
- - 5 min 1004 W/m² 17,5 °C 30,8 °C 41,8 km/h
NO
Durchschnitt _ 21,6 °C 70 % 1015,4 hPa #4,6 l/m² 5,2 km/h S-SW - #1:40 h 316 W/m² 15,2 °C 21,2 °C 11,9 km/h